sensor_id;sensor_type;location;lat;lon;timestamp;P1;durP1;ratioP1;P2;durP2;ratioP2
16699;SDS011;8466;52.286;21.124;2023-06-22T00:00:36;28.15;;;25.45;;
16699;SDS011;8466;52.286;21.124;2023-06-22T00:03:09;28.08;;;25.85;;
16699;SDS011;8466;52.286;21.124;2023-06-22T00:05:38;26.90;;;24.70;;
16699;SDS011;8466;52.286;21.124;2023-06-22T00:08:08;27.38;;;25.15;;
16699;SDS011;8466;52.286;21.124;2023-06-22T00:10:36;27.85;;;25.48;;
16699;SDS011;8466;52.286;21.124;2023-06-22T00:13:05;28.55;;;26.23;;
16699;SDS011;8466;52.286;21.124;2023-06-22T00:15:35;29.42;;;26.83;;
16699;SDS011;8466;52.286;21.124;2023-06-22T00:18:05;31.05;;;28.25;;
16699;SDS011;8466;52.286;21.124;2023-06-22T00:20:35;29.85;;;27.20;;
16699;SDS011;8466;52.286;21.124;2023-06-22T00:23:04;30.25;;;27.73;;
16699;SDS011;8466;52.286;21.124;2023-06-22T00:25:36;28.80;;;26.48;;
16699;SDS011;8466;52.286;21.124;2023-06-22T00:28:06;29.70;;;27.30;;
16699;SDS011;8466;52.286;21.124;2023-06-22T00:30:35;29.08;;;26.67;;
16699;SDS011;8466;52.286;21.124;2023-06-22T00:33:04;31.02;;;28.42;;
16699;SDS011;8466;52.286;21.124;2023-06-22T00:35:34;28.38;;;26.08;;
16699;SDS011;8466;52.286;21.124;2023-06-22T00:38:02;29.98;;;27.15;;
16699;SDS011;8466;52.286;21.124;2023-06-22T00:40:32;29.08;;;26.73;;
16699;SDS011;8466;52.286;21.124;2023-06-22T00:43:02;29.80;;;27.30;;
16699;SDS011;8466;52.286;21.124;2023-06-22T00:45:32;31.65;;;28.95;;
16699;SDS011;8466;52.286;21.124;2023-06-22T00:48:01;29.13;;;26.83;;
16699;SDS011;8466;52.286;21.124;2023-06-22T00:50:32;30.58;;;28.02;;
16699;SDS011;8466;52.286;21.124;2023-06-22T00:53:03;29.98;;;27.58;;
16699;SDS011;8466;52.286;21.124;2023-06-22T00:55:36;30.33;;;27.85;;
16699;SDS011;8466;52.286;21.124;2023-06-22T00:58:07;31.50;;;28.90;;
16699;SDS011;8466;52.286;21.124;2023-06-22T01:00:37;31.42;;;28.75;;
16699;SDS011;8466;52.286;21.124;2023-06-22T01:03:07;31.02;;;28.38;;
16699;SDS011;8466;52.286;21.124;2023-06-22T01:05:37;32.70;;;29.88;;
16699;SDS011;8466;52.286;21.124;2023-06-22T01:08:13;33.00;;;30.13;;
16699;SDS011;8466;52.286;21.124;2023-06-22T01:10:51;32.25;;;29.35;;
16699;SDS011;8466;52.286;21.124;2023-06-22T01:13:28;32.20;;;29.15;;
16699;SDS011;8466;52.286;21.124;2023-06-22T01:16:01;31.83;;;29.13;;
16699;SDS011;8466;52.286;21.124;2023-06-22T01:18:31;32.30;;;29.17;;
16699;SDS011;8466;52.286;21.124;2023-06-22T01:21:04;32.00;;;29.30;;
16699;SDS011;8466;52.286;21.124;2023-06-22T01:23:39;30.98;;;28.23;;
16699;SDS011;8466;52.286;21.124;2023-06-22T01:26:21;30.88;;;28.13;;
16699;SDS011;8466;52.286;21.124;2023-06-22T01:28:58;31.35;;;28.50;;
16699;SDS011;8466;52.286;21.124;2023-06-22T01:31:27;32.45;;;29.65;;
16699;SDS011;8466;52.286;21.124;2023-06-22T01:33:58;31.02;;;28.27;;
16699;SDS011;8466;52.286;21.124;2023-06-22T01:36:28;30.83;;;28.08;;
16699;SDS011;8466;52.286;21.124;2023-06-22T01:38:59;29.77;;;27.20;;
16699;SDS011;8466;52.286;21.124;2023-06-22T01:41:30;29.92;;;27.40;;
16699;SDS011;8466;52.286;21.124;2023-06-22T01:44:03;31.80;;;29.10;;
16699;SDS011;8466;52.286;21.124;2023-06-22T01:46:34;31.13;;;28.42;;
16699;SDS011;8466;52.286;21.124;2023-06-22T01:49:04;31.23;;;28.50;;
16699;SDS011;8466;52.286;21.124;2023-06-22T01:51:33;30.13;;;27.60;;
16699;SDS011;8466;52.286;21.124;2023-06-22T01:54:02;30.40;;;27.80;;
16699;SDS011;8466;52.286;21.124;2023-06-22T01:56:31;30.05;;;27.58;;
16699;SDS011;8466;52.286;21.124;2023-06-22T01:59:01;32.33;;;29.63;;
16699;SDS011;8466;52.286;21.124;2023-06-22T02:01:40;31.77;;;28.90;;
16699;SDS011;8466;52.286;21.124;2023-06-22T02:04:13;31.83;;;29.13;;
16699;SDS011;8466;52.286;21.124;2023-06-22T02:06:47;30.55;;;27.88;;
16699;SDS011;8466;52.286;21.124;2023-06-22T02:09:19;30.73;;;28.15;;
16699;SDS011;8466;52.286;21.124;2023-06-22T02:11:50;30.63;;;28.05;;
16699;SDS011;8466;52.286;21.124;2023-06-22T02:14:23;31.45;;;28.85;;
16699;SDS011;8466;52.286;21.124;2023-06-22T02:16:52;31.20;;;28.55;;
16699;SDS011;8466;52.286;21.124;2023-06-22T02:19:26;31.33;;;28.52;;
16699;SDS011;8466;52.286;21.124;2023-06-22T02:21:59;30.02;;;27.52;;
16699;SDS011;8466;52.286;21.124;2023-06-22T02:24:28;30.00;;;27.50;;
16699;SDS011;8466;52.286;21.124;2023-06-22T02:26:58;30.00;;;27.27;;
16699;SDS011;8466;52.286;21.124;2023-06-22T02:29:29;31.67;;;28.98;;
16699;SDS011;8466;52.286;21.124;2023-06-22T02:31:58;31.88;;;29.10;;
16699;SDS011;8466;52.286;21.124;2023-06-22T02:34:27;31.42;;;28.77;;
16699;SDS011;8466;52.286;21.124;2023-06-22T02:36:56;32.70;;;29.77;;
16699;SDS011;8466;52.286;21.124;2023-06-22T02:39:29;30.55;;;28.05;;
16699;SDS011;8466;52.286;21.124;2023-06-22T02:41:57;33.42;;;30.15;;
16699;SDS011;8466;52.286;21.124;2023-06-22T02:44:26;31.67;;;28.77;;
16699;SDS011;8466;52.286;21.124;2023-06-22T02:46:56;32.97;;;29.85;;
16699;SDS011;8466;52.286;21.124;2023-06-22T02:49:25;30.77;;;28.13;;
16699;SDS011;8466;52.286;21.124;2023-06-22T02:51:54;32.28;;;29.48;;
16699;SDS011;8466;52.286;21.124;2023-06-22T02:54:23;32.83;;;30.02;;
16699;SDS011;8466;52.286;21.124;2023-06-22T02:56:52;32.47;;;29.67;;
16699;SDS011;8466;52.286;21.124;2023-06-22T02:59:20;31.98;;;29.38;;
16699;SDS011;8466;52.286;21.124;2023-06-22T03:01:50;35.70;;;32.47;;
16699;SDS011;8466;52.286;21.124;2023-06-22T03:04:21;38.50;;;35.28;;
16699;SDS011;8466;52.286;21.124;2023-06-22T03:06:50;38.97;;;35.67;;
16699;SDS011;8466;52.286;21.124;2023-06-22T03:09:18;38.00;;;34.47;;
16699;SDS011;8466;52.286;21.124;2023-06-22T03:11:47;40.53;;;36.88;;
16699;SDS011;8466;52.286;21.124;2023-06-22T03:14:15;42.78;;;38.92;;
16699;SDS011;8466;52.286;21.124;2023-06-22T03:16:44;38.38;;;35.03;;
16699;SDS011;8466;52.286;21.124;2023-06-22T03:19:13;39.70;;;36.30;;
16699;SDS011;8466;52.286;21.124;2023-06-22T03:21:43;41.33;;;37.85;;
16699;SDS011;8466;52.286;21.124;2023-06-22T03:24:12;39.70;;;36.17;;
16699;SDS011;8466;52.286;21.124;2023-06-22T03:26:40;41.58;;;37.80;;
16699;SDS011;8466;52.286;21.124;2023-06-22T03:29:09;40.88;;;37.47;;
16699;SDS011;8466;52.286;21.124;2023-06-22T03:31:38;36.55;;;33.45;;
16699;SDS011;8466;52.286;21.124;2023-06-22T03:34:06;36.67;;;33.53;;
16699;SDS011;8466;52.286;21.124;2023-06-22T03:36:38;37.78;;;34.50;;
16699;SDS011;8466;52.286;21.124;2023-06-22T03:39:08;39.90;;;36.60;;
16699;SDS011;8466;52.286;21.124;2023-06-22T03:41:36;36.75;;;33.75;;
16699;SDS011;8466;52.286;21.124;2023-06-22T03:44:05;39.70;;;36.05;;
16699;SDS011;8466;52.286;21.124;2023-06-22T03:46:37;36.90;;;33.67;;
16699;SDS011;8466;52.286;21.124;2023-06-22T03:49:06;35.83;;;32.83;;
16699;SDS011;8466;52.286;21.124;2023-06-22T03:51:34;35.40;;;32.40;;
16699;SDS011;8466;52.286;21.124;2023-06-22T03:54:03;38.60;;;34.70;;
16699;SDS011;8466;52.286;21.124;2023-06-22T03:56:33;35.47;;;32.40;;
16699;SDS011;8466;52.286;21.124;2023-06-22T03:59:02;34.55;;;31.50;;
16699;SDS011;8466;52.286;21.124;2023-06-22T04:01:30;36.00;;;32.78;;
16699;SDS011;8466;52.286;21.124;2023-06-22T04:03:59;35.88;;;32.65;;
16699;SDS011;8466;52.286;21.124;2023-06-22T04:06:28;34.08;;;31.23;;
16699;SDS011;8466;52.286;21.124;2023-06-22T04:08:57;34.90;;;32.00;;
16699;SDS011;8466;52.286;21.124;2023-06-22T04:11:27;31.38;;;28.58;;
16699;SDS011;8466;52.286;21.124;2023-06-22T04:13:57;32.97;;;30.10;;
16699;SDS011;8466;52.286;21.124;2023-06-22T04:16:26;31.35;;;28.77;;
16699;SDS011;8466;52.286;21.124;2023-06-22T04:18:55;33.15;;;30.35;;
16699;SDS011;8466;52.286;21.124;2023-06-22T04:21:24;31.63;;;29.02;;
16699;SDS011;8466;52.286;21.124;2023-06-22T04:23:52;30.73;;;28.23;;
16699;SDS011;8466;52.286;21.124;2023-06-22T04:26:21;30.20;;;27.50;;
16699;SDS011;8466;52.286;21.124;2023-06-22T04:28:50;27.70;;;25.30;;
16699;SDS011;8466;52.286;21.124;2023-06-22T04:31:23;29.40;;;26.90;;
16699;SDS011;8466;52.286;21.124;2023-06-22T04:33:59;29.58;;;27.08;;
16699;SDS011;8466;52.286;21.124;2023-06-22T04:36:33;28.52;;;26.17;;
16699;SDS011;8466;52.286;21.124;2023-06-22T04:39:06;26.58;;;24.38;;
16699;SDS011;8466;52.286;21.124;2023-06-22T04:41:36;24.88;;;22.80;;
16699;SDS011;8466;52.286;21.124;2023-06-22T04:44:14;24.45;;;22.45;;
16699;SDS011;8466;52.286;21.124;2023-06-22T04:46:52;25.92;;;23.65;;
16699;SDS011;8466;52.286;21.124;2023-06-22T04:49:26;25.80;;;23.80;;
16699;SDS011;8466;52.286;21.124;2023-06-22T04:51:59;28.33;;;25.75;;
16699;SDS011;8466;52.286;21.124;2023-06-22T04:54:29;29.10;;;26.60;;
16699;SDS011;8466;52.286;21.124;2023-06-22T04:56:59;30.75;;;27.75;;
16699;SDS011;8466;52.286;21.124;2023-06-22T04:59:29;29.45;;;26.95;;
16699;SDS011;8466;52.286;21.124;2023-06-22T05:02:00;29.25;;;26.67;;
16699;SDS011;8466;52.286;21.124;2023-06-22T05:04:29;27.52;;;25.33;;
16699;SDS011;8466;52.286;21.124;2023-06-22T05:06:59;28.23;;;25.77;;
16699;SDS011;8466;52.286;21.124;2023-06-22T05:09:28;27.45;;;25.15;;
16699;SDS011;8466;52.286;21.124;2023-06-22T05:11:57;26.00;;;23.90;;
16699;SDS011;8466;52.286;21.124;2023-06-22T05:14:26;26.17;;;24.08;;
16699;SDS011;8466;52.286;21.124;2023-06-22T05:16:55;28.75;;;25.92;;
16699;SDS011;8466;52.286;21.124;2023-06-22T05:19:26;25.63;;;23.42;;
16699;SDS011;8466;52.286;21.124;2023-06-22T05:22:01;27.27;;;24.88;;
16699;SDS011;8466;52.286;21.124;2023-06-22T05:24:29;27.98;;;25.67;;
16699;SDS011;8466;52.286;21.124;2023-06-22T05:26:58;29.20;;;26.50;;
16699;SDS011;8466;52.286;21.124;2023-06-22T05:29:27;29.10;;;26.52;;
16699;SDS011;8466;52.286;21.124;2023-06-22T05:31:56;25.30;;;23.20;;
16699;SDS011;8466;52.286;21.124;2023-06-22T05:34:24;26.27;;;23.98;;
16699;SDS011;8466;52.286;21.124;2023-06-22T05:36:55;26.27;;;24.15;;
16699;SDS011;8466;52.286;21.124;2023-06-22T05:39:26;27.23;;;24.65;;
16699;SDS011;8466;52.286;21.124;2023-06-22T05:41:55;24.77;;;22.67;;
16699;SDS011;8466;52.286;21.124;2023-06-22T05:44:23;26.40;;;24.05;;
16699;SDS011;8466;52.286;21.124;2023-06-22T05:46:52;25.98;;;23.70;;
16699;SDS011;8466;52.286;21.124;2023-06-22T05:49:21;24.83;;;22.58;;
16699;SDS011;8466;52.286;21.124;2023-06-22T05:51:52;25.45;;;23.00;;
16699;SDS011;8466;52.286;21.124;2023-06-22T05:54:21;26.27;;;23.85;;
16699;SDS011;8466;52.286;21.124;2023-06-22T05:56:49;26.13;;;23.92;;
16699;SDS011;8466;52.286;21.124;2023-06-22T05:59:18;23.88;;;21.67;;
16699;SDS011;8466;52.286;21.124;2023-06-22T06:01:47;25.30;;;23.13;;
16699;SDS011;8466;52.286;21.124;2023-06-22T06:04:17;22.30;;;20.40;;
16699;SDS011;8466;52.286;21.124;2023-06-22T06:06:46;24.05;;;22.08;;
16699;SDS011;8466;52.286;21.124;2023-06-22T06:09:16;22.52;;;20.52;;
16699;SDS011;8466;52.286;21.124;2023-06-22T06:11:45;23.17;;;21.20;;
16699;SDS011;8466;52.286;21.124;2023-06-22T06:14:14;21.95;;;20.25;;
16699;SDS011;8466;52.286;21.124;2023-06-22T06:16:43;20.92;;;19.17;;
16699;SDS011;8466;52.286;21.124;2023-06-22T06:19:12;22.23;;;20.23;;
16699;SDS011;8466;52.286;21.124;2023-06-22T06:21:41;22.98;;;21.08;;
16699;SDS011;8466;52.286;21.124;2023-06-22T06:24:09;20.95;;;19.15;;
16699;SDS011;8466;52.286;21.124;2023-06-22T06:26:40;20.13;;;18.33;;
16699;SDS011;8466;52.286;21.124;2023-06-22T06:29:09;19.95;;;18.00;;
16699;SDS011;8466;52.286;21.124;2023-06-22T06:31:38;18.70;;;17.10;;
16699;SDS011;8466;52.286;21.124;2023-06-22T06:34:07;20.05;;;18.25;;
16699;SDS011;8466;52.286;21.124;2023-06-22T06:36:35;18.58;;;16.88;;
16699;SDS011;8466;52.286;21.124;2023-06-22T06:39:04;19.80;;;18.00;;
16699;SDS011;8466;52.286;21.124;2023-06-22T06:41:33;19.73;;;17.98;;
16699;SDS011;8466;52.286;21.124;2023-06-22T06:44:03;19.77;;;18.08;;
16699;SDS011;8466;52.286;21.124;2023-06-22T06:46:32;18.95;;;17.30;;
16699;SDS011;8466;52.286;21.124;2023-06-22T06:49:01;19.67;;;17.88;;
16699;SDS011;8466;52.286;21.124;2023-06-22T06:51:30;17.33;;;15.73;;
16699;SDS011;8466;52.286;21.124;2023-06-22T06:53:58;15.45;;;14.25;;
16699;SDS011;8466;52.286;21.124;2023-06-22T06:56:27;16.73;;;15.23;;
16699;SDS011;8466;52.286;21.124;2023-06-22T06:58:58;15.60;;;14.15;;
16699;SDS011;8466;52.286;21.124;2023-06-22T07:01:28;15.27;;;13.95;;
16699;SDS011;8466;52.286;21.124;2023-06-22T07:04:00;15.98;;;14.63;;
16699;SDS011;8466;52.286;21.124;2023-06-22T07:06:29;15.52;;;14.15;;
16699;SDS011;8466;52.286;21.124;2023-06-22T07:08:58;15.65;;;14.25;;
16699;SDS011;8466;52.286;21.124;2023-06-22T07:11:28;13.15;;;12.15;;
16699;SDS011;8466;52.286;21.124;2023-06-22T07:13:57;14.60;;;13.30;;
16699;SDS011;8466;52.286;21.124;2023-06-22T07:16:28;15.13;;;13.82;;
16699;SDS011;8466;52.286;21.124;2023-06-22T07:18:58;14.60;;;13.40;;
16699;SDS011;8466;52.286;21.124;2023-06-22T07:21:26;13.60;;;12.43;;
16699;SDS011;8466;52.286;21.124;2023-06-22T07:23:55;12.05;;;11.10;;
16699;SDS011;8466;52.286;21.124;2023-06-22T07:26:24;13.10;;;12.10;;
16699;SDS011;8466;52.286;21.124;2023-06-22T07:28:52;13.05;;;11.85;;
16699;SDS011;8466;52.286;21.124;2023-06-22T07:31:23;13.52;;;12.27;;
16699;SDS011;8466;52.286;21.124;2023-06-22T07:33:54;11.50;;;10.48;;
16699;SDS011;8466;52.286;21.124;2023-06-22T07:36:22;11.57;;;10.68;;
16699;SDS011;8466;52.286;21.124;2023-06-22T07:38:51;12.68;;;10.85;;
16699;SDS011;8466;52.286;21.124;2023-06-22T07:41:20;11.18;;;10.05;;
16699;SDS011;8466;52.286;21.124;2023-06-22T07:43:49;11.00;;;10.00;;
16699;SDS011;8466;52.286;21.124;2023-06-22T07:46:18;10.57;;;9.57;;
16699;SDS011;8466;52.286;21.124;2023-06-22T07:48:46;10.75;;;9.85;;
16699;SDS011;8466;52.286;21.124;2023-06-22T07:51:16;10.23;;;9.38;;
16699;SDS011;8466;52.286;21.124;2023-06-22T07:53:45;10.48;;;9.55;;
16699;SDS011;8466;52.286;21.124;2023-06-22T07:56:14;8.18;;;7.47;;
16699;SDS011;8466;52.286;21.124;2023-06-22T07:58:45;7.93;;;7.32;;
16699;SDS011;8466;52.286;21.124;2023-06-22T08:01:14;8.55;;;7.70;;
16699;SDS011;8466;52.286;21.124;2023-06-22T08:03:43;6.47;;;5.80;;
16699;SDS011;8466;52.286;21.124;2023-06-22T08:06:12;6.63;;;5.28;;
16699;SDS011;8466;52.286;21.124;2023-06-22T08:08:42;7.10;;;6.60;;
16699;SDS011;8466;52.286;21.124;2023-06-22T08:11:14;6.00;;;5.40;;
16699;SDS011;8466;52.286;21.124;2023-06-22T08:13:43;5.85;;;5.05;;
16699;SDS011;8466;52.286;21.124;2023-06-22T08:16:12;8.20;;;5.03;;
16699;SDS011;8466;52.286;21.124;2023-06-22T08:18:41;5.43;;;5.00;;
16699;SDS011;8466;52.286;21.124;2023-06-22T08:21:11;6.97;;;4.47;;
16699;SDS011;8466;52.286;21.124;2023-06-22T08:23:39;6.03;;;5.00;;
16699;SDS011;8466;52.286;21.124;2023-06-22T08:26:09;6.10;;;5.28;;
16699;SDS011;8466;52.286;21.124;2023-06-22T08:28:38;7.00;;;4.70;;
16699;SDS011;8466;52.286;21.124;2023-06-22T08:31:07;5.05;;;4.18;;
16699;SDS011;8466;52.286;21.124;2023-06-22T08:33:36;5.50;;;3.95;;
16699;SDS011;8466;52.286;21.124;2023-06-22T08:36:14;4.22;;;3.83;;
16699;SDS011;8466;52.286;21.124;2023-06-22T08:38:43;4.50;;;3.90;;
16699;SDS011;8466;52.286;21.124;2023-06-22T08:41:16;3.78;;;3.40;;
16699;SDS011;8466;52.286;21.124;2023-06-22T08:43:45;4.13;;;3.78;;
16699;SDS011;8466;52.286;21.124;2023-06-22T08:46:14;4.32;;;3.92;;
16699;SDS011;8466;52.286;21.124;2023-06-22T08:48:46;4.53;;;4.13;;
16699;SDS011;8466;52.286;21.124;2023-06-22T08:51:15;4.65;;;4.10;;
16699;SDS011;8466;52.286;21.124;2023-06-22T08:53:46;4.78;;;3.83;;
16699;SDS011;8466;52.286;21.124;2023-06-22T08:56:16;3.60;;;3.30;;
16699;SDS011;8466;52.286;21.124;2023-06-22T08:58:46;5.30;;;3.70;;
16699;SDS011;8466;52.286;21.124;2023-06-22T09:01:15;4.68;;;3.90;;
16699;SDS011;8466;52.286;21.124;2023-06-22T09:03:45;3.50;;;3.20;;
16699;SDS011;8466;52.286;21.124;2023-06-22T09:06:21;5.13;;;3.50;;
16699;SDS011;8466;52.286;21.124;2023-06-22T09:08:57;3.72;;;3.15;;
16699;SDS011;8466;52.286;21.124;2023-06-22T09:11:28;3.50;;;3.20;;
16699;SDS011;8466;52.286;21.124;2023-06-22T09:13:57;4.85;;;3.05;;
16699;SDS011;8466;52.286;21.124;2023-06-22T09:16:30;4.38;;;3.50;;
16699;SDS011;8466;52.286;21.124;2023-06-22T09:18:59;3.17;;;2.88;;
16699;SDS011;8466;52.286;21.124;2023-06-22T09:21:30;6.05;;;3.08;;
16699;SDS011;8466;52.286;21.124;2023-06-22T09:24:00;3.10;;;2.90;;
16699;SDS011;8466;52.286;21.124;2023-06-22T09:26:30;3.15;;;2.85;;
16699;SDS011;8466;52.286;21.124;2023-06-22T09:28:59;2.85;;;2.65;;
16699;SDS011;8466;52.286;21.124;2023-06-22T09:31:28;3.30;;;2.60;;
16699;SDS011;8466;52.286;21.124;2023-06-22T09:33:57;3.95;;;2.60;;
16699;SDS011;8466;52.286;21.124;2023-06-22T09:36:25;2.90;;;2.53;;
16699;SDS011;8466;52.286;21.124;2023-06-22T09:38:54;2.78;;;2.58;;
16699;SDS011;8466;52.286;21.124;2023-06-22T09:41:25;3.83;;;2.38;;
16699;SDS011;8466;52.286;21.124;2023-06-22T09:43:55;2.97;;;2.70;;
16699;SDS011;8466;52.286;21.124;2023-06-22T09:46:24;3.05;;;2.55;;
16699;SDS011;8466;52.286;21.124;2023-06-22T09:48:58;3.05;;;2.47;;
16699;SDS011;8466;52.286;21.124;2023-06-22T09:51:27;4.32;;;2.92;;
16699;SDS011;8466;52.286;21.124;2023-06-22T09:53:56;3.05;;;2.70;;
16699;SDS011;8466;52.286;21.124;2023-06-22T09:56:25;3.65;;;2.85;;
16699;SDS011;8466;52.286;21.124;2023-06-22T09:58:56;4.13;;;3.08;;
16699;SDS011;8466;52.286;21.124;2023-06-22T10:01:43;4.40;;;3.00;;
16699;SDS011;8466;52.286;21.124;2023-06-22T10:04:12;4.68;;;3.30;;
16699;SDS011;8466;52.286;21.124;2023-06-22T10:06:41;6.15;;;3.67;;
16699;SDS011;8466;52.286;21.124;2023-06-22T10:09:09;3.67;;;3.10;;
16699;SDS011;8466;52.286;21.124;2023-06-22T10:11:38;3.78;;;3.47;;
16699;SDS011;8466;52.286;21.124;2023-06-22T10:14:08;6.95;;;3.63;;
16699;SDS011;8466;52.286;21.124;2023-06-22T10:16:36;6.10;;;3.45;;
16699;SDS011;8466;52.286;21.124;2023-06-22T10:19:05;4.95;;;3.03;;
16699;SDS011;8466;52.286;21.124;2023-06-22T10:21:34;5.32;;;3.47;;
16699;SDS011;8466;52.286;21.124;2023-06-22T10:24:03;3.88;;;3.47;;
16699;SDS011;8466;52.286;21.124;2023-06-22T10:26:33;4.90;;;3.35;;
16699;SDS011;8466;52.286;21.124;2023-06-22T10:29:03;6.18;;;3.60;;
16699;SDS011;8466;52.286;21.124;2023-06-22T10:31:44;5.22;;;3.45;;
16699;SDS011;8466;52.286;21.124;2023-06-22T10:34:12;3.65;;;3.35;;
16699;SDS011;8466;52.286;21.124;2023-06-22T10:36:41;5.25;;;3.30;;
16699;SDS011;8466;52.286;21.124;2023-06-22T10:39:10;4.43;;;3.47;;
16699;SDS011;8466;52.286;21.124;2023-06-22T10:41:39;4.43;;;4.03;;
16699;SDS011;8466;52.286;21.124;2023-06-22T10:44:07;3.60;;;3.30;;
16699;SDS011;8466;52.286;21.124;2023-06-22T10:46:36;4.10;;;3.67;;
16699;SDS011;8466;52.286;21.124;2023-06-22T10:49:06;9.20;;;4.05;;
16699;SDS011;8466;52.286;21.124;2023-06-22T10:51:35;3.67;;;3.22;;
16699;SDS011;8466;52.286;21.124;2023-06-22T10:54:03;4.40;;;3.67;;
16699;SDS011;8466;52.286;21.124;2023-06-22T10:56:32;4.07;;;3.60;;
16699;SDS011;8466;52.286;21.124;2023-06-22T10:59:01;4.28;;;3.97;;
16699;SDS011;8466;52.286;21.124;2023-06-22T11:01:30;3.80;;;3.50;;
16699;SDS011;8466;52.286;21.124;2023-06-22T11:04:02;4.15;;;3.70;;
16699;SDS011;8466;52.286;21.124;2023-06-22T11:06:33;4.93;;;3.83;;
16699;SDS011;8466;52.286;21.124;2023-06-22T11:09:02;4.45;;;4.05;;
16699;SDS011;8466;52.286;21.124;2023-06-22T11:11:49;7.13;;;4.00;;
16699;SDS011;8466;52.286;21.124;2023-06-22T11:14:20;4.10;;;3.80;;
16699;SDS011;8466;52.286;21.124;2023-06-22T11:16:51;3.60;;;3.40;;
16699;SDS011;8466;52.286;21.124;2023-06-22T11:19:20;4.05;;;3.47;;
16699;SDS011;8466;52.286;21.124;2023-06-22T11:21:50;4.10;;;3.80;;
16699;SDS011;8466;52.286;21.124;2023-06-22T11:24:19;6.13;;;3.92;;
16699;SDS011;8466;52.286;21.124;2023-06-22T11:26:47;5.07;;;3.72;;
16699;SDS011;8466;52.286;21.124;2023-06-22T11:29:16;5.47;;;3.72;;
16699;SDS011;8466;52.286;21.124;2023-06-22T11:32:03;5.38;;;3.85;;
16699;SDS011;8466;52.286;21.124;2023-06-22T11:34:33;4.10;;;3.80;;
16699;SDS011;8466;52.286;21.124;2023-06-22T11:37:04;5.82;;;4.03;;
16699;SDS011;8466;52.286;21.124;2023-06-22T11:39:33;4.30;;;3.90;;
16699;SDS011;8466;52.286;21.124;2023-06-22T11:42:08;4.63;;;3.88;;
16699;SDS011;8466;52.286;21.124;2023-06-22T11:44:37;5.28;;;4.03;;
16699;SDS011;8466;52.286;21.124;2023-06-22T11:47:06;8.98;;;4.45;;
16699;SDS011;8466;52.286;21.124;2023-06-22T11:49:34;4.80;;;4.15;;
16699;SDS011;8466;52.286;21.124;2023-06-22T11:52:05;7.22;;;4.13;;
16699;SDS011;8466;52.286;21.124;2023-06-22T11:54:34;5.75;;;4.38;;
16699;SDS011;8466;52.286;21.124;2023-06-22T11:57:04;4.30;;;3.90;;
16699;SDS011;8466;52.286;21.124;2023-06-22T11:59:33;6.30;;;4.22;;
16699;SDS011;8466;52.286;21.124;2023-06-22T12:04:52;4.32;;;3.78;;
16699;SDS011;8466;52.286;21.124;2023-06-22T12:07:24;8.02;;;4.80;;
16699;SDS011;8466;52.286;21.124;2023-06-22T12:09:52;4.50;;;4.10;;
16699;SDS011;8466;52.286;21.124;2023-06-22T12:12:21;7.22;;;4.18;;
16699;SDS011;8466;52.286;21.124;2023-06-22T12:14:50;5.40;;;4.25;;
16699;SDS011;8466;52.286;21.124;2023-06-22T12:17:19;7.88;;;3.90;;
16699;SDS011;8466;52.286;21.124;2023-06-22T12:19:47;4.43;;;4.00;;
16699;SDS011;8466;52.286;21.124;2023-06-22T12:22:16;4.22;;;3.92;;
16699;SDS011;8466;52.286;21.124;2023-06-22T12:24:48;3.90;;;3.60;;
16699;SDS011;8466;52.286;21.124;2023-06-22T12:27:19;3.70;;;3.33;;
16699;SDS011;8466;52.286;21.124;2023-06-22T12:29:47;4.78;;;3.72;;
16699;SDS011;8466;52.286;21.124;2023-06-22T12:32:16;5.53;;;4.00;;
16699;SDS011;8466;52.286;21.124;2023-06-22T12:34:45;4.15;;;3.75;;
16699;SDS011;8466;52.286;21.124;2023-06-22T12:37:14;5.38;;;4.40;;
16699;SDS011;8466;52.286;21.124;2023-06-22T12:39:43;4.97;;;4.10;;
16699;SDS011;8466;52.286;21.124;2023-06-22T12:42:13;4.53;;;4.05;;
16699;SDS011;8466;52.286;21.124;2023-06-22T12:44:43;4.88;;;4.47;;
16699;SDS011;8466;52.286;21.124;2023-06-22T12:47:11;7.35;;;4.25;;
16699;SDS011;8466;52.286;21.124;2023-06-22T12:49:40;4.00;;;3.70;;
16699;SDS011;8466;52.286;21.124;2023-06-22T12:52:09;5.80;;;4.30;;
16699;SDS011;8466;52.286;21.124;2023-06-22T12:54:38;4.38;;;3.90;;
16699;SDS011;8466;52.286;21.124;2023-06-22T12:57:22;4.55;;;4.07;;
16699;SDS011;8466;52.286;21.124;2023-06-22T12:59:52;4.28;;;3.97;;
16699;SDS011;8466;52.286;21.124;2023-06-22T13:02:20;4.40;;;4.10;;
16699;SDS011;8466;52.286;21.124;2023-06-22T13:04:49;6.25;;;4.60;;
16699;SDS011;8466;52.286;21.124;2023-06-22T13:07:17;4.20;;;3.88;;
16699;SDS011;8466;52.286;21.124;2023-06-22T13:09:49;4.20;;;3.80;;
16699;SDS011;8466;52.286;21.124;2023-06-22T13:12:19;4.68;;;4.20;;
16699;SDS011;8466;52.286;21.124;2023-06-22T13:14:49;4.68;;;4.28;;
16699;SDS011;8466;52.286;21.124;2023-06-22T13:17:18;4.72;;;4.30;;
16699;SDS011;8466;52.286;21.124;2023-06-22T13:19:47;4.85;;;4.38;;
16699;SDS011;8466;52.286;21.124;2023-06-22T13:22:25;5.43;;;4.15;;
16699;SDS011;8466;52.286;21.124;2023-06-22T13:24:57;4.88;;;4.32;;
16699;SDS011;8466;52.286;21.124;2023-06-22T13:27:28;7.32;;;4.22;;
16699;SDS011;8466;52.286;21.124;2023-06-22T13:29:56;4.55;;;4.15;;
16699;SDS011;8466;52.286;21.124;2023-06-22T13:32:25;4.57;;;4.20;;
16699;SDS011;8466;52.286;21.124;2023-06-22T13:34:54;5.03;;;4.63;;
16699;SDS011;8466;52.286;21.124;2023-06-22T13:37:23;5.07;;;4.63;;
16699;SDS011;8466;52.286;21.124;2023-06-22T13:39:52;5.35;;;4.95;;
16699;SDS011;8466;52.286;21.124;2023-06-22T13:42:24;4.93;;;4.57;;
16699;SDS011;8466;52.286;21.124;2023-06-22T13:44:54;4.90;;;4.50;;
16699;SDS011;8466;52.286;21.124;2023-06-22T13:47:23;8.02;;;4.47;;
16699;SDS011;8466;52.286;21.124;2023-06-22T13:49:54;4.70;;;4.40;;
16699;SDS011;8466;52.286;21.124;2023-06-22T13:52:24;5.05;;;4.03;;
16699;SDS011;8466;52.286;21.124;2023-06-22T13:54:53;4.80;;;4.40;;
16699;SDS011;8466;52.286;21.124;2023-06-22T13:57:22;6.82;;;4.70;;
16699;SDS011;8466;52.286;21.124;2023-06-22T13:59:50;4.95;;;4.65;;
16699;SDS011;8466;52.286;21.124;2023-06-22T14:02:20;4.90;;;4.43;;
16699;SDS011;8466;52.286;21.124;2023-06-22T14:04:49;6.00;;;4.80;;
16699;SDS011;8466;52.286;21.124;2023-06-22T14:07:18;7.25;;;4.75;;
16699;SDS011;8466;52.286;21.124;2023-06-22T14:09:47;4.75;;;4.35;;
16699;SDS011;8466;52.286;21.124;2023-06-22T14:12:16;5.32;;;4.70;;
16699;SDS011;8466;52.286;21.124;2023-06-22T14:14:45;5.15;;;4.63;;
16699;SDS011;8466;52.286;21.124;2023-06-22T14:17:14;4.93;;;4.53;;
16699;SDS011;8466;52.286;21.124;2023-06-22T14:19:44;4.95;;;4.20;;
16699;SDS011;8466;52.286;21.124;2023-06-22T14:22:13;5.20;;;4.20;;
16699;SDS011;8466;52.286;21.124;2023-06-22T14:24:41;6.28;;;4.20;;
16699;SDS011;8466;52.286;21.124;2023-06-22T14:27:10;7.95;;;4.35;;
16699;SDS011;8466;52.286;21.124;2023-06-22T14:29:39;4.82;;;4.38;;
16699;SDS011;8466;52.286;21.124;2023-06-22T14:32:08;5.22;;;4.72;;
16699;SDS011;8466;52.286;21.124;2023-06-22T14:34:37;5.93;;;4.35;;
16699;SDS011;8466;52.286;21.124;2023-06-22T14:37:07;4.68;;;4.38;;
16699;SDS011;8466;52.286;21.124;2023-06-22T14:39:36;5.43;;;4.63;;
16699;SDS011;8466;52.286;21.124;2023-06-22T14:42:06;5.68;;;4.80;;
16699;SDS011;8466;52.286;21.124;2023-06-22T14:44:34;5.13;;;4.63;;
16699;SDS011;8466;52.286;21.124;2023-06-22T14:47:03;5.03;;;4.53;;
16699;SDS011;8466;52.286;21.124;2023-06-22T14:49:32;4.70;;;4.40;;
16699;SDS011;8466;52.286;21.124;2023-06-22T14:52:02;4.30;;;4.00;;